createdAt,value
2022-12-01T00:00:16.285Z,48.95
2022-12-01T00:05:18.326Z,44.35
2022-12-01T00:10:26.555Z,41.53
2022-12-01T00:15:31.650Z,36.17
2022-12-01T00:20:35.255Z,37.35
2022-12-01T00:25:37.381Z,40.35
2022-12-01T00:30:39.412Z,42.17
2022-12-01T00:35:41.456Z,43.60
2022-12-01T00:40:43.559Z,35.53
2022-12-01T00:45:45.771Z,33.42
2022-12-01T00:50:48.238Z,34.13
2022-12-01T00:55:50.487Z,33.35
2022-12-01T01:01:01.181Z,40.25
2022-12-01T01:06:06.395Z,34.90
2022-12-01T01:11:09.550Z,32.17
2022-12-01T01:16:18.218Z,32.28
2022-12-01T01:21:22.204Z,36.47
2022-12-01T01:26:27.441Z,38.17
2022-12-01T01:31:31.453Z,34.25
2022-12-01T01:36:33.545Z,36.28
2022-12-01T01:41:35.579Z,37.33
2022-12-01T01:46:37.892Z,40.75
2022-12-01T01:51:58.274Z,32.97
2022-12-01T01:57:01.948Z,33.20
2022-12-01T02:02:06.915Z,29.75
2022-12-01T02:07:11.488Z,36.97
2022-12-01T02:12:16.677Z,41.63
2022-12-01T02:17:41.834Z,38.38
2022-12-01T02:23:13.100Z,37.13
2022-12-01T02:28:52.622Z,35.25
2022-12-01T02:34:01.977Z,37.80
2022-12-01T02:39:17.350Z,35.45
2022-12-01T02:44:32.549Z,33.33
2022-12-01T02:49:40.408Z,39.08
2022-12-01T02:54:45.827Z,39.92
2022-12-01T02:59:53.689Z,45.80
2022-12-01T03:05:04.650Z,44.70
2022-12-01T03:10:16.112Z,41.38
2022-12-01T03:15:32.245Z,35.95
2022-12-01T03:20:57.901Z,32.13
2022-12-01T03:26:03.964Z,46.80
2022-12-01T03:31:10.008Z,45.45
2022-12-01T03:36:38.109Z,45.53
2022-12-01T03:41:45.709Z,39.25
2022-12-01T03:46:54.105Z,42.75
2022-12-01T03:51:59.052Z,45.67
2022-12-01T03:57:06.305Z,45.55
2022-12-01T04:02:08.862Z,40.80
2022-12-01T04:07:13.609Z,41.25
2022-12-01T04:12:31.069Z,35.97
2022-12-01T04:17:33.152Z,43.95
2022-12-01T04:22:35.180Z,46.20
2022-12-01T04:27:38.085Z,43.15
2022-12-01T04:32:42.046Z,43.92
2022-12-01T04:37:44.111Z,40.22
2022-12-01T04:42:46.183Z,45.38
2022-12-01T04:47:53.080Z,42.97
2022-12-01T04:52:55.304Z,40.67
2022-12-01T04:57:58.183Z,41.38
2022-12-01T05:03:00.810Z,40.22
2022-12-01T05:08:03.002Z,47.03
2022-12-01T05:13:05.916Z,46.25
2022-12-01T05:18:07.965Z,42.67
2022-12-01T05:23:16.362Z,52.22
2022-12-01T05:28:19.558Z,47.60
2022-12-01T05:33:23.393Z,47.90
2022-12-01T05:38:25.504Z,50.28
2022-12-01T05:43:29.582Z,42.75
2022-12-01T05:48:32.201Z,43.08
2022-12-01T05:53:34.267Z,40.30
2022-12-01T05:58:36.603Z,53.83
2022-12-01T06:03:38.698Z,56.00
2022-12-01T06:08:40.753Z,47.42
2022-12-01T06:13:42.795Z,49.78
2022-12-01T06:18:44.873Z,51.70
2022-12-01T06:23:46.979Z,53.78
2022-12-01T06:28:49.036Z,45.85
2022-12-01T06:33:51.081Z,49.47
2022-12-01T06:38:53.070Z,50.72
2022-12-01T06:43:55.110Z,53.70
2022-12-01T06:48:57.338Z,44.72
2022-12-01T06:54:05.066Z,48.53
2022-12-01T06:59:07.662Z,49.42
2022-12-01T07:04:09.828Z,46.88
2022-12-01T07:09:11.852Z,52.38
2022-12-01T07:14:23.417Z,48.85
2022-12-01T07:19:25.622Z,54.22
2022-12-01T07:24:27.692Z,47.97
2022-12-01T07:29:29.700Z,48.95
2022-12-01T07:34:31.720Z,44.97
2022-12-01T07:39:33.754Z,48.38
2022-12-01T07:44:35.757Z,51.42
2022-12-01T07:49:38.167Z,46.30
2022-12-01T07:54:41.286Z,51.22
2022-12-01T07:59:43.441Z,50.55
2022-12-01T08:04:45.515Z,52.00
2022-12-01T08:09:47.859Z,48.75
2022-12-01T08:14:50.233Z,58.55
2022-12-01T08:19:52.354Z,54.92
2022-12-01T08:24:54.440Z,57.88
2022-12-01T08:29:56.456Z,55.35
2022-12-01T08:34:58.479Z,69.38
2022-12-01T08:40:00.625Z,55.85
2022-12-01T08:45:02.872Z,60.03
2022-12-01T08:50:06.612Z,64.43
2022-12-01T08:55:09.420Z,59.85
2022-12-01T09:00:12.554Z,61.60
2022-12-01T09:05:14.743Z,55.70
2022-12-01T09:10:16.984Z,59.75
2022-12-01T09:15:19.039Z,57.92
2022-12-01T09:25:23.193Z,58.33
2022-12-01T09:35:27.337Z,57.58
2022-12-01T09:40:43.300Z,58.47
2022-12-01T09:45:51.760Z,58.22
2022-12-01T09:50:54.414Z,65.40
2022-12-01T09:56:02.544Z,72.03
2022-12-01T10:01:17.987Z,66.70
2022-12-01T10:06:29.771Z,76.00
2022-12-01T10:11:36.181Z,57.38
2022-12-01T10:16:49.349Z,55.50
2022-12-01T10:22:26.983Z,53.03
2022-12-01T10:27:38.560Z,55.95
2022-12-01T10:33:15.860Z,72.88
2022-12-01T10:38:30.786Z,71.35
2022-12-01T10:43:44.217Z,64.57
2022-12-01T10:48:57.858Z,68.90
2022-12-01T10:54:11.527Z,58.60
2022-12-01T10:59:27.150Z,65.97
2022-12-01T11:04:29.170Z,69.22
2022-12-01T11:14:37.294Z,67.40
2022-12-01T11:19:39.394Z,66.07
2022-12-01T11:24:55.773Z,67.35
2022-12-01T11:30:10.375Z,77.72
2022-12-01T11:35:21.637Z,77.88
2022-12-01T11:40:46.223Z,66.78
2022-12-01T11:45:48.594Z,72.78
2022-12-01T11:51:02.036Z,78.25
2022-12-01T11:56:13.094Z,69.30
2022-12-01T12:01:22.247Z,71.13
2022-12-01T12:06:41.426Z,71.75
2022-12-01T12:12:23.312Z,75.93
2022-12-01T12:22:58.826Z,72.05
2022-12-01T12:28:25.535Z,74.63
2022-12-01T12:33:37.895Z,81.80
2022-12-01T12:39:01.138Z,73.55
2022-12-01T12:44:30.024Z,70.15
2022-12-01T12:49:49.334Z,76.10
2022-12-01T12:54:57.326Z,72.80
2022-12-01T13:00:14.594Z,72.70
2022-12-01T13:05:49.517Z,69.25
2022-12-01T13:11:06.811Z,72.68
2022-12-01T13:16:19.303Z,69.63
2022-12-01T13:21:24.113Z,73.30
2022-12-01T13:26:26.541Z,78.85
2022-12-01T13:31:28.710Z,77.10
2022-12-01T13:36:48.434Z,79.85
2022-12-01T13:42:07.330Z,74.28
2022-12-01T13:47:12.383Z,72.72
2022-12-01T13:52:23.355Z,69.45
2022-12-01T13:57:31.839Z,74.03
2022-12-01T14:02:35.882Z,68.95
2022-12-01T14:07:38.932Z,78.65
2022-12-01T14:12:45.712Z,70.72
2022-12-01T14:17:53.772Z,73.63
2022-12-01T14:23:15.078Z,71.10
2022-12-01T14:33:48.042Z,58.88
2022-12-01T14:38:59.153Z,57.60
2022-12-01T14:44:10.891Z,58.97
2022-12-01T14:49:17.983Z,58.08
2022-12-01T14:54:29.096Z,55.13
2022-12-01T14:59:31.560Z,63.13
2022-12-01T15:04:34.485Z,56.75
2022-12-01T15:09:36.673Z,55.78
2022-12-01T15:14:47.516Z,70.13
2022-12-01T15:19:51.038Z,52.75
2022-12-01T15:24:53.378Z,54.80
2022-12-01T15:29:58.399Z,55.45
2022-12-01T15:35:05.498Z,47.45
2022-12-01T15:40:54.483Z,55.10
2022-12-01T15:45:42.778Z,62.95
2022-12-01T15:50:58.961Z,63.72
2022-12-01T15:56:05.086Z,58.05
2022-12-01T16:01:14.533Z,59.80
2022-12-01T16:06:18.103Z,58.80
2022-12-01T16:11:22.088Z,54.90
2022-12-01T16:16:45.892Z,59.22
2022-12-01T16:21:49.323Z,55.47
2022-12-01T16:27:00.463Z,54.10
2022-12-01T16:37:24.028Z,43.47
2022-12-01T16:42:27.561Z,49.30
2022-12-01T16:47:31.933Z,49.08
2022-12-01T16:52:44.249Z,55.17
2022-12-01T16:57:47.223Z,61.28
2022-12-01T17:02:50.119Z,53.13
2022-12-01T17:07:52.341Z,52.15
2022-12-01T17:12:55.207Z,48.13
2022-12-01T17:17:57.400Z,48.30
2022-12-01T17:22:59.924Z,50.53
2022-12-01T17:28:02.135Z,51.45
2022-12-01T17:33:04.412Z,50.70
2022-12-01T17:38:06.643Z,52.65
2022-12-01T17:43:08.747Z,48.72
2022-12-01T17:48:11.279Z,46.72
2022-12-01T17:53:13.323Z,45.85
2022-12-01T17:58:18.191Z,42.05
2022-12-01T18:03:21.446Z,51.13
2022-12-01T18:08:25.681Z,53.85
2022-12-01T18:13:29.797Z,46.28
2022-12-01T18:18:31.996Z,42.45
2022-12-01T18:23:34.954Z,49.60
2022-12-01T18:28:37.343Z,45.40
2022-12-01T18:33:41.857Z,50.85
2022-12-01T18:38:44.517Z,41.08
2022-12-01T18:43:47.097Z,41.30
2022-12-01T18:48:54.432Z,45.65
2022-12-01T18:53:58.475Z,43.75
2022-12-01T18:59:03.755Z,45.70
2022-12-01T19:04:08.781Z,42.10
2022-12-01T19:09:13.057Z,41.38
2022-12-01T19:14:17.627Z,40.83
2022-12-01T19:19:21.354Z,46.20
2022-12-01T19:24:23.515Z,46.67
2022-12-01T19:29:25.870Z,40.35
2022-12-01T19:34:28.132Z,48.83
2022-12-01T19:39:30.548Z,41.33
2022-12-01T19:44:33.138Z,44.00
2022-12-01T19:49:35.635Z,39.63
2022-12-01T19:54:37.927Z,48.75
2022-12-01T19:59:40.116Z,35.30
2022-12-01T20:04:43.660Z,38.95
2022-12-01T20:09:49.885Z,45.30
2022-12-01T20:14:52.885Z,44.78
2022-12-01T20:19:55.408Z,39.80
2022-12-01T20:24:57.507Z,32.83
2022-12-01T20:29:59.688Z,38.45
2022-12-01T20:35:02.047Z,36.35
2022-12-01T20:40:06.333Z,43.08
2022-12-01T20:45:08.487Z,45.42
2022-12-01T20:50:10.871Z,38.67
2022-12-01T20:55:13.106Z,33.63
2022-12-01T21:00:15.798Z,45.60
2022-12-01T21:05:18.147Z,39.85
2022-12-01T21:10:20.776Z,39.30
2022-12-01T21:15:28.870Z,42.63
2022-12-01T21:20:36.064Z,47.28
2022-12-01T21:25:39.949Z,40.42
2022-12-01T21:30:42.197Z,44.20
2022-12-01T21:35:44.448Z,48.40
2022-12-01T21:40:47.076Z,44.08
2022-12-01T21:45:56.241Z,45.35
2022-12-01T21:51:01.849Z,45.28
2022-12-01T21:56:04.277Z,44.28
2022-12-01T22:01:23.318Z,53.60
2022-12-01T22:06:30.567Z,46.90
2022-12-01T22:11:32.900Z,45.25
2022-12-01T22:16:47.235Z,43.40
2022-12-01T22:29:00.193Z,38.80
2022-12-01T22:34:03.496Z,39.42
2022-12-01T22:39:26.658Z,44.15
2022-12-01T22:44:30.940Z,41.30
2022-12-01T22:49:34.267Z,43.50
2022-12-01T22:54:43.584Z,45.08
2022-12-01T22:59:47.851Z,40.38
2022-12-01T23:04:56.967Z,44.42
2022-12-01T23:10:19.368Z,44.47
2022-12-01T23:15:45.014Z,42.03
2022-12-01T23:20:55.384Z,50.67
2022-12-01T23:25:58.617Z,41.25
2022-12-01T23:31:00.829Z,44.60
2022-12-01T23:36:07.350Z,41.10
2022-12-01T23:41:33.568Z,43.85
2022-12-01T23:46:36.575Z,52.33
2022-12-01T23:51:44.232Z,56.08
2022-12-01T23:56:57.052Z,52.67
